Aeroporto :







RITROVATECI SU...

 
LOGIN :

Iscrizione | Disclaimer

   EN    FR    IT 

 









Sommario :    VFR   VFR Marginale   IFR   IFR Intensivo   IFR Molto Intensivo
Visibilità : 
Base nubi : 
>= 8 km
>= 3000ft
5 / 8 km
1000 / 3000 ft
1500m / 5 km
500 / 1000 ft
800 / 1500m
200 / 500 ft
< 800m
< 200 ft
Simboli :   Temporali  Nebbia  Neve Forte  Precipitazioni Forti  Vento > 20 kt






- Altitudine del aeroporto : 100 ft
- Codice IATA : PSM


KPSM - Portsmouth International at Pease

ULTIMO METAR :
  • 250856Z 03004KT 7SM FEW015 OVC025 02/00 A3034 RMK AO2A SLP278 T00231003 57008

METARs OBSOLETI :
  • 250756Z 01004KT 7SM FEW015 OVC027 02/00 A3035 RMK AO2A SLP281 T00221002
  • 250656Z 01005KT 7SM FEW015 OVC026 02/00 A3036 RMK AO2A SLP284 T00221001

TAF KPSM
Valido dal 25 a 09 ore il 26 a 06 ore UTC


250915Z 2509/2606 VRB04KT 6SM BR OVC015
FM251500 08006KT 6SM BR BKN012
FM252300 08010G30KT 4SM RA OVC005



MetMap, La meteo Aeronautica in un colpo d'occhio ! - Copyright ORBIFLY Dicembre 2007 - Disclaimer

ORBIFLY MET'MAP TEAM :

Programmazione e sviluppo : Alexandra Zaïnal
Concezione : Baudouin d'Aumeries
Aiuto per la programmazione : Marc-Olivier Méhu
Supporto tecnico e logistico : Manuel Goepfert
Aiuto per la traduzione : Arnaldo La Scala

Contatto : metmap@orbifly.com




FONTI E CREDITI :

   NOAA